sensor_id;sensor_type;location;lat;lon;timestamp;P1;durP1;ratioP1;P2;durP2;ratioP2
45408;SDS011;31162;51.076;3.784;2023-03-01T00:00:54;9.80;;;8.30;;
45408;SDS011;31162;51.076;3.784;2023-03-01T00:03:19;8.85;;;8.02;;
45408;SDS011;31162;51.076;3.784;2023-03-01T00:05:46;8.75;;;7.85;;
45408;SDS011;31162;51.076;3.784;2023-03-01T00:08:12;9.10;;;8.20;;
45408;SDS011;31162;51.076;3.784;2023-03-01T00:10:38;9.07;;;8.27;;
45408;SDS011;31162;51.076;3.784;2023-03-01T00:13:03;9.23;;;8.32;;
45408;SDS011;31162;51.076;3.784;2023-03-01T00:15:31;9.38;;;8.48;;
45408;SDS011;31162;51.076;3.784;2023-03-01T00:17:57;9.82;;;8.70;;
45408;SDS011;31162;51.076;3.784;2023-03-01T00:20:23;9.70;;;8.70;;
45408;SDS011;31162;51.076;3.784;2023-03-01T00:22:49;11.10;;;9.20;;
45408;SDS011;31162;51.076;3.784;2023-03-01T00:25:15;10.82;;;9.55;;
45408;SDS011;31162;51.076;3.784;2023-03-01T00:27:40;10.00;;;8.98;;
45408;SDS011;31162;51.076;3.784;2023-03-01T00:30:06;9.65;;;8.68;;
45408;SDS011;31162;51.076;3.784;2023-03-01T00:32:33;9.90;;;8.88;;
45408;SDS011;31162;51.076;3.784;2023-03-01T00:34:58;10.77;;;9.18;;
45408;SDS011;31162;51.076;3.784;2023-03-01T00:37:24;9.95;;;9.02;;
45408;SDS011;31162;51.076;3.784;2023-03-01T00:39:50;11.40;;;9.23;;
45408;SDS011;31162;51.076;3.784;2023-03-01T00:42:15;10.63;;;8.85;;
45408;SDS011;31162;51.076;3.784;2023-03-01T00:44:42;9.93;;;8.90;;
45408;SDS011;31162;51.076;3.784;2023-03-01T00:47:08;10.93;;;9.75;;
45408;SDS011;31162;51.076;3.784;2023-03-01T00:49:34;10.27;;;9.07;;
45408;SDS011;31162;51.076;3.784;2023-03-01T00:51:59;11.25;;;9.40;;
45408;SDS011;31162;51.076;3.784;2023-03-01T00:54:25;11.98;;;10.68;;
45408;SDS011;31162;51.076;3.784;2023-03-01T00:56:51;11.02;;;9.88;;
45408;SDS011;31162;51.076;3.784;2023-03-01T00:59:16;10.73;;;9.63;;
45408;SDS011;31162;51.076;3.784;2023-03-01T01:01:42;11.13;;;9.93;;
45408;SDS011;31162;51.076;3.784;2023-03-01T01:04:09;10.63;;;9.63;;
45408;SDS011;31162;51.076;3.784;2023-03-01T01:06:46;12.02;;;10.77;;
45408;SDS011;31162;51.076;3.784;2023-03-01T01:09:12;11.13;;;10.02;;
45408;SDS011;31162;51.076;3.784;2023-03-01T01:11:46;11.65;;;10.55;;
45408;SDS011;31162;51.076;3.784;2023-03-01T01:14:13;11.95;;;10.85;;
45408;SDS011;31162;51.076;3.784;2023-03-01T01:16:39;14.38;;;11.45;;
45408;SDS011;31162;51.076;3.784;2023-03-01T01:19:05;12.63;;;11.32;;
45408;SDS011;31162;51.076;3.784;2023-03-01T01:21:31;13.65;;;12.25;;
45408;SDS011;31162;51.076;3.784;2023-03-01T01:23:57;12.88;;;11.52;;
45408;SDS011;31162;51.076;3.784;2023-03-01T01:26:27;13.20;;;11.85;;
45408;SDS011;31162;51.076;3.784;2023-03-01T01:28:54;14.02;;;12.63;;
45408;SDS011;31162;51.076;3.784;2023-03-01T01:31:21;15.60;;;12.90;;
45408;SDS011;31162;51.076;3.784;2023-03-01T01:33:48;13.32;;;11.85;;
45408;SDS011;31162;51.076;3.784;2023-03-01T01:36:14;13.07;;;11.68;;
45408;SDS011;31162;51.076;3.784;2023-03-01T01:38:40;14.55;;;12.88;;
45408;SDS011;31162;51.076;3.784;2023-03-01T01:41:07;15.05;;;13.23;;
45408;SDS011;31162;51.076;3.784;2023-03-01T01:43:37;16.67;;;13.70;;
45408;SDS011;31162;51.076;3.784;2023-03-01T01:46:52;16.60;;;13.98;;
45408;SDS011;31162;51.076;3.784;2023-03-01T01:48:56;16.00;;;13.70;;
45408;SDS011;31162;51.076;3.784;2023-03-01T01:51:24;16.65;;;13.90;;
45408;SDS011;31162;51.076;3.784;2023-03-01T01:54:03;16.50;;;14.52;;
45408;SDS011;31162;51.076;3.784;2023-03-01T01:56:33;16.60;;;14.70;;
45408;SDS011;31162;51.076;3.784;2023-03-01T01:59:02;17.42;;;14.82;;
45408;SDS011;31162;51.076;3.784;2023-03-01T02:01:27;17.05;;;15.27;;
45408;SDS011;31162;51.076;3.784;2023-03-01T02:03:53;16.85;;;15.10;;
45408;SDS011;31162;51.076;3.784;2023-03-01T02:06:26;19.15;;;15.27;;
45408;SDS011;31162;51.076;3.784;2023-03-01T02:09:06;16.30;;;14.70;;
45408;SDS011;31162;51.076;3.784;2023-03-01T02:11:36;17.17;;;15.32;;
45408;SDS011;31162;51.076;3.784;2023-03-01T02:14:02;17.42;;;15.63;;
45408;SDS011;31162;51.076;3.784;2023-03-01T02:16:28;18.05;;;15.45;;
45408;SDS011;31162;51.076;3.784;2023-03-01T02:18:55;18.38;;;16.17;;
45408;SDS011;31162;51.076;3.784;2023-03-01T02:24:21;17.27;;;15.57;;
45408;SDS011;31162;51.076;3.784;2023-03-01T02:27:07;19.17;;;16.35;;
45408;SDS011;31162;51.076;3.784;2023-03-01T02:29:34;17.83;;;15.90;;
45408;SDS011;31162;51.076;3.784;2023-03-01T02:32:00;17.98;;;16.10;;
45408;SDS011;31162;51.076;3.784;2023-03-01T02:34:28;19.38;;;17.30;;
45408;SDS011;31162;51.076;3.784;2023-03-01T02:39:29;19.73;;;17.02;;
45408;SDS011;31162;51.076;3.784;2023-03-01T02:41:58;19.95;;;17.25;;
45408;SDS011;31162;51.076;3.784;2023-03-01T02:44:26;21.23;;;17.92;;
45408;SDS011;31162;51.076;3.784;2023-03-01T02:46:53;19.17;;;17.10;;
45408;SDS011;31162;51.076;3.784;2023-03-01T02:49:28;21.83;;;17.67;;
45408;SDS011;31162;51.076;3.784;2023-03-01T02:54:59;22.63;;;18.52;;
45408;SDS011;31162;51.076;3.784;2023-03-01T02:57:33;22.08;;;18.40;;
45408;SDS011;31162;51.076;3.784;2023-03-01T03:00:10;21.92;;;18.95;;
45408;SDS011;31162;51.076;3.784;2023-03-01T03:02:44;23.20;;;18.85;;
45408;SDS011;31162;51.076;3.784;2023-03-01T03:05:13;22.63;;;19.48;;
45408;SDS011;31162;51.076;3.784;2023-03-01T03:07:44;23.33;;;19.83;;
45408;SDS011;31162;51.076;3.784;2023-03-01T03:10:16;23.88;;;19.63;;
45408;SDS011;31162;51.076;3.784;2023-03-01T03:12:48;24.77;;;20.30;;
45408;SDS011;31162;51.076;3.784;2023-03-01T03:15:19;25.65;;;20.90;;
45408;SDS011;31162;51.076;3.784;2023-03-01T03:17:46;23.23;;;19.50;;
45408;SDS011;31162;51.076;3.784;2023-03-01T03:20:12;23.85;;;20.55;;
45408;SDS011;31162;51.076;3.784;2023-03-01T03:22:43;27.77;;;21.25;;
45408;SDS011;31162;51.076;3.784;2023-03-01T03:25:10;25.50;;;20.40;;
45408;SDS011;31162;51.076;3.784;2023-03-01T03:27:40;25.52;;;20.45;;
45408;SDS011;31162;51.076;3.784;2023-03-01T03:30:08;25.85;;;21.08;;
45408;SDS011;31162;51.076;3.784;2023-03-01T03:32:37;26.50;;;20.98;;
45408;SDS011;31162;51.076;3.784;2023-03-01T03:35:04;26.48;;;21.50;;
45408;SDS011;31162;51.076;3.784;2023-03-01T03:37:35;29.55;;;22.23;;
45408;SDS011;31162;51.076;3.784;2023-03-01T03:40:21;27.85;;;22.35;;
45408;SDS011;31162;51.076;3.784;2023-03-01T03:42:46;27.52;;;21.58;;
45408;SDS011;31162;51.076;3.784;2023-03-01T03:45:13;25.70;;;21.65;;
45408;SDS011;31162;51.076;3.784;2023-03-01T03:47:39;25.95;;;22.23;;
45408;SDS011;31162;51.076;3.784;2023-03-01T03:50:04;27.42;;;22.15;;
45408;SDS011;31162;51.076;3.784;2023-03-01T03:52:30;28.02;;;23.27;;
45408;SDS011;31162;51.076;3.784;2023-03-01T03:54:56;31.15;;;24.50;;
45408;SDS011;31162;51.076;3.784;2023-03-01T03:57:21;29.40;;;23.92;;
45408;SDS011;31162;51.076;3.784;2023-03-01T03:59:47;29.35;;;23.25;;
45408;SDS011;31162;51.076;3.784;2023-03-01T04:02:13;30.83;;;24.00;;
45408;SDS011;31162;51.076;3.784;2023-03-01T04:04:46;27.55;;;23.15;;
45408;SDS011;31162;51.076;3.784;2023-03-01T04:07:16;29.30;;;23.02;;
45408;SDS011;31162;51.076;3.784;2023-03-01T04:09:42;28.70;;;23.30;;
45408;SDS011;31162;51.076;3.784;2023-03-01T04:12:08;28.80;;;22.73;;
45408;SDS011;31162;51.076;3.784;2023-03-01T04:14:35;28.88;;;22.70;;
45408;SDS011;31162;51.076;3.784;2023-03-01T04:17:01;29.00;;;22.48;;
45408;SDS011;31162;51.076;3.784;2023-03-01T04:19:30;30.00;;;23.55;;
45408;SDS011;31162;51.076;3.784;2023-03-01T04:22:01;29.48;;;23.75;;
45408;SDS011;31162;51.076;3.784;2023-03-01T04:24:32;31.77;;;24.52;;
45408;SDS011;31162;51.076;3.784;2023-03-01T04:26:58;31.70;;;23.95;;
45408;SDS011;31162;51.076;3.784;2023-03-01T04:29:24;31.48;;;23.95;;
45408;SDS011;31162;51.076;3.784;2023-03-01T04:31:49;30.83;;;24.52;;
45408;SDS011;31162;51.076;3.784;2023-03-01T04:34:15;29.02;;;23.67;;
45408;SDS011;31162;51.076;3.784;2023-03-01T04:36:41;31.30;;;23.40;;
45408;SDS011;31162;51.076;3.784;2023-03-01T04:39:06;32.33;;;23.88;;
45408;SDS011;31162;51.076;3.784;2023-03-01T04:41:37;30.60;;;22.20;;
45408;SDS011;31162;51.076;3.784;2023-03-01T04:44:08;28.30;;;23.55;;
45408;SDS011;31162;51.076;3.784;2023-03-01T04:46:34;31.30;;;24.55;;
45408;SDS011;31162;51.076;3.784;2023-03-01T04:49:00;32.33;;;24.65;;
45408;SDS011;31162;51.076;3.784;2023-03-01T04:51:26;31.02;;;24.63;;
45408;SDS011;31162;51.076;3.784;2023-03-01T04:53:52;32.88;;;24.45;;
45408;SDS011;31162;51.076;3.784;2023-03-01T04:56:18;34.13;;;24.73;;
45408;SDS011;31162;51.076;3.784;2023-03-01T04:58:44;32.25;;;24.70;;
45408;SDS011;31162;51.076;3.784;2023-03-01T05:01:11;33.35;;;25.75;;
45408;SDS011;31162;51.076;3.784;2023-03-01T05:06:14;31.05;;;24.73;;
45408;SDS011;31162;51.076;3.784;2023-03-01T05:08:41;32.83;;;25.15;;
45408;SDS011;31162;51.076;3.784;2023-03-01T05:11:07;31.50;;;23.67;;
45408;SDS011;31162;51.076;3.784;2023-03-01T05:13:34;30.25;;;24.20;;
45408;SDS011;31162;51.076;3.784;2023-03-01T05:16:01;30.52;;;22.55;;
45408;SDS011;31162;51.076;3.784;2023-03-01T05:18:28;31.85;;;23.02;;
45408;SDS011;31162;51.076;3.784;2023-03-01T05:20:56;32.17;;;24.00;;
45408;SDS011;31162;51.076;3.784;2023-03-01T05:23:31;31.77;;;22.83;;
45408;SDS011;31162;51.076;3.784;2023-03-01T05:25:58;31.58;;;22.40;;
45408;SDS011;31162;51.076;3.784;2023-03-01T05:28:25;29.98;;;22.50;;
45408;SDS011;31162;51.076;3.784;2023-03-01T05:30:52;30.63;;;21.60;;
45408;SDS011;31162;51.076;3.784;2023-03-01T05:33:19;30.38;;;22.08;;
45408;SDS011;31162;51.076;3.784;2023-03-01T05:35:46;29.95;;;22.15;;
45408;SDS011;31162;51.076;3.784;2023-03-01T05:38:14;30.17;;;22.58;;
45408;SDS011;31162;51.076;3.784;2023-03-01T05:40:41;32.38;;;22.98;;
45408;SDS011;31162;51.076;3.784;2023-03-01T05:43:08;30.17;;;22.50;;
45408;SDS011;31162;51.076;3.784;2023-03-01T05:45:35;31.80;;;22.63;;
45408;SDS011;31162;51.076;3.784;2023-03-01T05:48:02;31.88;;;22.85;;
45408;SDS011;31162;51.076;3.784;2023-03-01T05:50:31;29.00;;;22.83;;
45408;SDS011;31162;51.076;3.784;2023-03-01T05:52:59;32.10;;;22.80;;
45408;SDS011;31162;51.076;3.784;2023-03-01T05:55:28;29.05;;;21.92;;
45408;SDS011;31162;51.076;3.784;2023-03-01T05:57:57;32.13;;;22.45;;
45408;SDS011;31162;51.076;3.784;2023-03-01T06:00:27;28.52;;;21.75;;
45408;SDS011;31162;51.076;3.784;2023-03-01T06:02:55;33.22;;;22.48;;
45408;SDS011;31162;51.076;3.784;2023-03-01T06:05:21;29.48;;;21.73;;
45408;SDS011;31162;51.076;3.784;2023-03-01T06:07:48;27.65;;;21.77;;
45408;SDS011;31162;51.076;3.784;2023-03-01T06:10:15;31.25;;;23.27;;
45408;SDS011;31162;51.076;3.784;2023-03-01T06:12:41;29.80;;;22.33;;
45408;SDS011;31162;51.076;3.784;2023-03-01T06:15:08;30.60;;;23.13;;
45408;SDS011;31162;51.076;3.784;2023-03-01T06:17:36;31.27;;;22.70;;
45408;SDS011;31162;51.076;3.784;2023-03-01T06:20:04;30.77;;;23.48;;
45408;SDS011;31162;51.076;3.784;2023-03-01T06:22:32;31.40;;;22.52;;
45408;SDS011;31162;51.076;3.784;2023-03-01T06:24:57;30.70;;;23.95;;
45408;SDS011;31162;51.076;3.784;2023-03-01T06:27:23;26.48;;;20.52;;
45408;SDS011;31162;51.076;3.784;2023-03-01T06:29:49;59.45;;;41.40;;
45408;SDS011;31162;51.076;3.784;2023-03-01T06:32:14;27.60;;;22.48;;
45408;SDS011;31162;51.076;3.784;2023-03-01T06:34:40;26.25;;;20.75;;
45408;SDS011;31162;51.076;3.784;2023-03-01T06:37:06;26.70;;;20.42;;
45408;SDS011;31162;51.076;3.784;2023-03-01T06:39:32;24.85;;;19.08;;
45408;SDS011;31162;51.076;3.784;2023-03-01T06:41:58;25.33;;;19.98;;
45408;SDS011;31162;51.076;3.784;2023-03-01T06:44:24;27.42;;;20.70;;
45408;SDS011;31162;51.076;3.784;2023-03-01T06:46:50;29.05;;;20.48;;
45408;SDS011;31162;51.076;3.784;2023-03-01T06:49:16;24.98;;;19.25;;
45408;SDS011;31162;51.076;3.784;2023-03-01T06:51:42;26.13;;;18.80;;
45408;SDS011;31162;51.076;3.784;2023-03-01T06:54:09;26.42;;;20.35;;
45408;SDS011;31162;51.076;3.784;2023-03-01T06:56:35;22.67;;;18.98;;
45408;SDS011;31162;51.076;3.784;2023-03-01T06:59:01;48.10;;;35.75;;
45408;SDS011;31162;51.076;3.784;2023-03-01T07:01:27;21.45;;;17.95;;
45408;SDS011;31162;51.076;3.784;2023-03-01T07:03:54;18.80;;;15.35;;
45408;SDS011;31162;51.076;3.784;2023-03-01T07:06:20;17.30;;;15.50;;
45408;SDS011;31162;51.076;3.784;2023-03-01T07:08:46;16.70;;;14.50;;
45408;SDS011;31162;51.076;3.784;2023-03-01T07:11:12;17.38;;;15.48;;
45408;SDS011;31162;51.076;3.784;2023-03-01T07:13:38;16.73;;;14.23;;
45408;SDS011;31162;51.076;3.784;2023-03-01T07:16:03;18.88;;;16.13;;
45408;SDS011;31162;51.076;3.784;2023-03-01T07:18:29;15.40;;;13.68;;
45408;SDS011;31162;51.076;3.784;2023-03-01T07:20:55;15.07;;;13.25;;
45408;SDS011;31162;51.076;3.784;2023-03-01T07:23:21;15.07;;;13.48;;
45408;SDS011;31162;51.076;3.784;2023-03-01T07:25:53;15.60;;;13.32;;
45408;SDS011;31162;51.076;3.784;2023-03-01T07:28:20;15.00;;;13.20;;
45408;SDS011;31162;51.076;3.784;2023-03-01T07:30:47;16.13;;;13.68;;
45408;SDS011;31162;51.076;3.784;2023-03-01T07:33:12;17.65;;;13.93;;
45408;SDS011;31162;51.076;3.784;2023-03-01T07:35:38;14.27;;;12.88;;
45408;SDS011;31162;51.076;3.784;2023-03-01T07:38:04;13.85;;;12.35;;
45408;SDS011;31162;51.076;3.784;2023-03-01T07:40:29;13.73;;;12.00;;
45408;SDS011;31162;51.076;3.784;2023-03-01T07:42:56;13.60;;;12.18;;
45408;SDS011;31162;51.076;3.784;2023-03-01T07:45:22;12.82;;;11.52;;
45408;SDS011;31162;51.076;3.784;2023-03-01T07:47:50;12.50;;;11.30;;
45408;SDS011;31162;51.076;3.784;2023-03-01T07:50:17;15.88;;;11.85;;
45408;SDS011;31162;51.076;3.784;2023-03-01T07:52:46;11.70;;;10.60;;
45408;SDS011;31162;51.076;3.784;2023-03-01T07:55:13;12.00;;;10.90;;
45408;SDS011;31162;51.076;3.784;2023-03-01T07:57:39;12.77;;;10.93;;
45408;SDS011;31162;51.076;3.784;2023-03-01T08:00:05;12.75;;;11.32;;
45408;SDS011;31162;51.076;3.784;2023-03-01T08:02:31;13.60;;;11.23;;
45408;SDS011;31162;51.076;3.784;2023-03-01T08:04:57;11.75;;;10.60;;
45408;SDS011;31162;51.076;3.784;2023-03-01T08:07:22;11.85;;;10.75;;
45408;SDS011;31162;51.076;3.784;2023-03-01T08:09:48;11.95;;;10.70;;
45408;SDS011;31162;51.076;3.784;2023-03-01T08:12:14;11.65;;;10.60;;
45408;SDS011;31162;51.076;3.784;2023-03-01T08:14:41;12.20;;;11.00;;
45408;SDS011;31162;51.076;3.784;2023-03-01T08:17:07;10.88;;;9.77;;
45408;SDS011;31162;51.076;3.784;2023-03-01T08:19:32;14.80;;;13.30;;
45408;SDS011;31162;51.076;3.784;2023-03-01T08:21:59;10.32;;;9.30;;
45408;SDS011;31162;51.076;3.784;2023-03-01T08:24:28;10.55;;;9.45;;
45408;SDS011;31162;51.076;3.784;2023-03-01T08:26:54;11.23;;;9.93;;
45408;SDS011;31162;51.076;3.784;2023-03-01T08:29:20;10.55;;;9.35;;
45408;SDS011;31162;51.076;3.784;2023-03-01T08:31:46;11.20;;;9.75;;
45408;SDS011;31162;51.076;3.784;2023-03-01T08:34:13;9.93;;;8.93;;
45408;SDS011;31162;51.076;3.784;2023-03-01T08:36:41;13.07;;;8.80;;
45408;SDS011;31162;51.076;3.784;2023-03-01T08:39:09;10.27;;;9.30;;
45408;SDS011;31162;51.076;3.784;2023-03-01T08:41:36;11.32;;;9.45;;
45408;SDS011;31162;51.076;3.784;2023-03-01T08:44:02;9.82;;;8.85;;
45408;SDS011;31162;51.076;3.784;2023-03-01T08:46:29;9.27;;;7.93;;
45408;SDS011;31162;51.076;3.784;2023-03-01T08:49:12;9.98;;;8.55;;
45408;SDS011;31162;51.076;3.784;2023-03-01T08:51:40;10.23;;;8.43;;
45408;SDS011;31162;51.076;3.784;2023-03-01T08:54:09;9.50;;;8.48;;
45408;SDS011;31162;51.076;3.784;2023-03-01T08:56:36;11.85;;;8.75;;
45408;SDS011;31162;51.076;3.784;2023-03-01T08:59:02;9.73;;;8.65;;
45408;SDS011;31162;51.076;3.784;2023-03-01T09:01:28;8.88;;;7.97;;
45408;SDS011;31162;51.076;3.784;2023-03-01T09:03:54;9.23;;;8.38;;
45408;SDS011;31162;51.076;3.784;2023-03-01T09:06:20;9.32;;;8.38;;
45408;SDS011;31162;51.076;3.784;2023-03-01T09:08:46;9.15;;;8.20;;
45408;SDS011;31162;51.076;3.784;2023-03-01T09:11:14;9.35;;;8.55;;
45408;SDS011;31162;51.076;3.784;2023-03-01T09:13:41;10.63;;;8.50;;
45408;SDS011;31162;51.076;3.784;2023-03-01T09:16:08;9.15;;;8.25;;
45408;SDS011;31162;51.076;3.784;2023-03-01T09:18:34;9.73;;;8.75;;
45408;SDS011;31162;51.076;3.784;2023-03-01T09:21:04;9.52;;;8.52;;
45408;SDS011;31162;51.076;3.784;2023-03-01T09:23:35;8.88;;;7.97;;
45408;SDS011;31162;51.076;3.784;2023-03-01T09:26:03;10.50;;;7.60;;
45408;SDS011;31162;51.076;3.784;2023-03-01T09:28:34;8.77;;;7.88;;
45408;SDS011;31162;51.076;3.784;2023-03-01T09:31:03;8.38;;;7.57;;
45408;SDS011;31162;51.076;3.784;2023-03-01T09:33:30;8.75;;;7.88;;
45408;SDS011;31162;51.076;3.784;2023-03-01T09:36:06;9.10;;;7.90;;
45408;SDS011;31162;51.076;3.784;2023-03-01T09:38:34;9.57;;;7.45;;
45408;SDS011;31162;51.076;3.784;2023-03-01T09:41:00;7.40;;;6.70;;
45408;SDS011;31162;51.076;3.784;2023-03-01T09:43:41;12.45;;;7.82;;
45408;SDS011;31162;51.076;3.784;2023-03-01T09:46:19;9.85;;;8.60;;
45408;SDS011;31162;51.076;3.784;2023-03-01T09:51:19;9.35;;;7.07;;
45408;SDS011;31162;51.076;3.784;2023-03-01T09:53:52;9.50;;;7.65;;
45408;SDS011;31162;51.076;3.784;2023-03-01T09:56:20;8.32;;;7.53;;
45408;SDS011;31162;51.076;3.784;2023-03-01T09:59:20;9.05;;;8.15;;
45408;SDS011;31162;51.076;3.784;2023-03-01T10:04:48;8.60;;;7.63;;
45408;SDS011;31162;51.076;3.784;2023-03-01T10:10:54;8.27;;;7.47;;
45408;SDS011;31162;51.076;3.784;2023-03-01T10:13:06;7.85;;;7.15;;
45408;SDS011;31162;51.076;3.784;2023-03-01T10:16:11;10.07;;;6.95;;
45408;SDS011;31162;51.076;3.784;2023-03-01T10:18:42;7.82;;;6.95;;
45408;SDS011;31162;51.076;3.784;2023-03-01T10:21:17;33.30;;;29.67;;
45408;SDS011;31162;51.076;3.784;2023-03-01T10:23:45;7.38;;;6.72;;
45408;SDS011;31162;51.076;3.784;2023-03-01T10:31:49;8.02;;;7.10;;
45408;SDS011;31162;51.076;3.784;2023-03-01T10:34:17;8.23;;;7.43;;
45408;SDS011;31162;51.076;3.784;2023-03-01T10:36:50;7.75;;;7.05;;
45408;SDS011;31162;51.076;3.784;2023-03-01T10:39:19;8.18;;;7.38;;
45408;SDS011;31162;51.076;3.784;2023-03-01T10:41:54;7.53;;;6.70;;
45408;SDS011;31162;51.076;3.784;2023-03-01T10:44:35;7.95;;;6.78;;
45408;SDS011;31162;51.076;3.784;2023-03-01T10:47:02;9.75;;;7.18;;
45408;SDS011;31162;51.076;3.784;2023-03-01T10:49:27;7.75;;;6.82;;
45408;SDS011;31162;51.076;3.784;2023-03-01T10:51:53;7.97;;;7.18;;
45408;SDS011;31162;51.076;3.784;2023-03-01T10:54:20;11.07;;;6.93;;
45408;SDS011;31162;51.076;3.784;2023-03-01T10:56:54;9.25;;;7.68;;
45408;SDS011;31162;51.076;3.784;2023-03-01T10:59:26;8.43;;;7.25;;
45408;SDS011;31162;51.076;3.784;2023-03-01T11:04:32;7.57;;;6.83;;
45408;SDS011;31162;51.076;3.784;2023-03-01T11:06:59;7.60;;;6.85;;
45408;SDS011;31162;51.076;3.784;2023-03-01T11:09:26;8.85;;;6.25;;
45408;SDS011;31162;51.076;3.784;2023-03-01T11:12:03;7.95;;;6.30;;
45408;SDS011;31162;51.076;3.784;2023-03-01T11:14:35;7.18;;;6.47;;
45408;SDS011;31162;51.076;3.784;2023-03-01T11:17:12;6.88;;;6.28;;
45408;SDS011;31162;51.076;3.784;2023-03-01T11:20:51;7.10;;;6.50;;
45408;SDS011;31162;51.076;3.784;2023-03-01T11:23:01;7.40;;;6.20;;
45408;SDS011;31162;51.076;3.784;2023-03-01T11:25:37;7.35;;;6.63;;
45408;SDS011;31162;51.076;3.784;2023-03-01T11:28:10;7.03;;;6.40;;
45408;SDS011;31162;51.076;3.784;2023-03-01T11:30:41;6.72;;;6.05;;
45408;SDS011;31162;51.076;3.784;2023-03-01T11:33:37;7.13;;;6.43;;
45408;SDS011;31162;51.076;3.784;2023-03-01T11:36:26;6.93;;;6.25;;
45408;SDS011;31162;51.076;3.784;2023-03-01T11:39:25;7.50;;;6.82;;
45408;SDS011;31162;51.076;3.784;2023-03-01T11:44:56;7.32;;;6.63;;
45408;SDS011;31162;51.076;3.784;2023-03-01T11:50:19;6.70;;;6.10;;
45408;SDS011;31162;51.076;3.784;2023-03-01T11:53:05;7.93;;;5.55;;
45408;SDS011;31162;51.076;3.784;2023-03-01T11:55:50;7.38;;;6.25;;
45408;SDS011;31162;51.076;3.784;2023-03-01T12:01:27;9.18;;;6.05;;
45408;SDS011;31162;51.076;3.784;2023-03-01T12:07:04;12.85;;;6.25;;
45408;SDS011;31162;51.076;3.784;2023-03-01T12:18:01;9.45;;;5.15;;
45408;SDS011;31162;51.076;3.784;2023-03-01T12:26:35;9.87;;;5.70;;
45408;SDS011;31162;51.076;3.784;2023-03-01T12:37:38;7.93;;;5.53;;
45408;SDS011;31162;51.076;3.784;2023-03-01T12:42:54;6.68;;;5.03;;
45408;SDS011;31162;51.076;3.784;2023-03-01T12:50:52;6.05;;;5.25;;
45408;SDS011;31162;51.076;3.784;2023-03-01T12:53:24;8.68;;;5.43;;
45408;SDS011;31162;51.076;3.784;2023-03-01T12:55:54;6.47;;;5.47;;
45408;SDS011;31162;51.076;3.784;2023-03-01T12:58:24;5.65;;;5.00;;
45408;SDS011;31162;51.076;3.784;2023-03-01T13:03:53;7.15;;;6.10;;
45408;SDS011;31162;51.076;3.784;2023-03-01T13:15:36;7.38;;;5.63;;
45408;SDS011;31162;51.076;3.784;2023-03-01T13:18:02;6.63;;;5.80;;
45408;SDS011;31162;51.076;3.784;2023-03-01T13:20:50;7.18;;;5.93;;
45408;SDS011;31162;51.076;3.784;2023-03-01T13:23:36;6.57;;;5.97;;
45408;SDS011;31162;51.076;3.784;2023-03-01T13:31:11;7.63;;;6.00;;
45408;SDS011;31162;51.076;3.784;2023-03-01T13:33:53;8.30;;;6.13;;
45408;SDS011;31162;51.076;3.784;2023-03-01T13:42:25;11.00;;;6.55;;
45408;SDS011;31162;51.076;3.784;2023-03-01T13:44:24;9.02;;;6.30;;
45408;SDS011;31162;51.076;3.784;2023-03-01T13:47:36;7.45;;;5.85;;
45408;SDS011;31162;51.076;3.784;2023-03-01T13:53:01;7.47;;;6.20;;
45408;SDS011;31162;51.076;3.784;2023-03-01T13:55:06;9.45;;;5.95;;
45408;SDS011;31162;51.076;3.784;2023-03-01T13:57:43;7.50;;;6.07;;
45408;SDS011;31162;51.076;3.784;2023-03-01T14:05:34;10.10;;;6.43;;
45408;SDS011;31162;51.076;3.784;2023-03-01T14:08:01;8.07;;;7.00;;
45408;SDS011;31162;51.076;3.784;2023-03-01T14:10:32;8.65;;;6.72;;
45408;SDS011;31162;51.076;3.784;2023-03-01T14:13:25;7.35;;;6.65;;
45408;SDS011;31162;51.076;3.784;2023-03-01T14:16:33;8.63;;;6.53;;
45408;SDS011;31162;51.076;3.784;2023-03-01T14:19:21;8.43;;;6.30;;
45408;SDS011;31162;51.076;3.784;2023-03-01T14:24:44;10.27;;;6.75;;
45408;SDS011;31162;51.076;3.784;2023-03-01T14:27:17;10.52;;;6.15;;
45408;SDS011;31162;51.076;3.784;2023-03-01T14:29:43;8.68;;;6.50;;
45408;SDS011;31162;51.076;3.784;2023-03-01T14:32:19;10.48;;;6.68;;
45408;SDS011;31162;51.076;3.784;2023-03-01T14:34:48;7.95;;;7.15;;
45408;SDS011;31162;51.076;3.784;2023-03-01T14:37:22;8.82;;;6.55;;
45408;SDS011;31162;51.076;3.784;2023-03-01T14:39:49;8.75;;;5.78;;
45408;SDS011;31162;51.076;3.784;2023-03-01T14:42:15;10.77;;;6.22;;
45408;SDS011;31162;51.076;3.784;2023-03-01T14:44:43;10.55;;;6.60;;
45408;SDS011;31162;51.076;3.784;2023-03-01T14:47:15;12.63;;;7.18;;
45408;SDS011;31162;51.076;3.784;2023-03-01T14:50:02;8.63;;;6.65;;
45408;SDS011;31162;51.076;3.784;2023-03-01T14:52:36;9.07;;;6.57;;
45408;SDS011;31162;51.076;3.784;2023-03-01T14:55:24;7.15;;;6.45;;
45408;SDS011;31162;51.076;3.784;2023-03-01T15:00:25;8.75;;;6.30;;
45408;SDS011;31162;51.076;3.784;2023-03-01T15:02:54;6.93;;;6.10;;
45408;SDS011;31162;51.076;3.784;2023-03-01T15:05:28;9.13;;;5.95;;
45408;SDS011;31162;51.076;3.784;2023-03-01T15:07:59;8.32;;;7.22;;
45408;SDS011;31162;51.076;3.784;2023-03-01T15:12:54;8.65;;;6.32;;
45408;SDS011;31162;51.076;3.784;2023-03-01T15:15:34;7.85;;;6.45;;
45408;SDS011;31162;51.076;3.784;2023-03-01T15:18:03;7.53;;;6.03;;
45408;SDS011;31162;51.076;3.784;2023-03-01T15:20:42;7.30;;;6.47;;
45408;SDS011;31162;51.076;3.784;2023-03-01T15:23:19;9.48;;;6.60;;
45408;SDS011;31162;51.076;3.784;2023-03-01T15:25:46;9.18;;;6.72;;
45408;SDS011;31162;51.076;3.784;2023-03-01T15:28:18;9.82;;;6.60;;
45408;SDS011;31162;51.076;3.784;2023-03-01T15:30:45;8.43;;;6.72;;
45408;SDS011;31162;51.076;3.784;2023-03-01T15:33:27;8.77;;;6.57;;
45408;SDS011;31162;51.076;3.784;2023-03-01T15:35:59;9.90;;;6.70;;
45408;SDS011;31162;51.076;3.784;2023-03-01T15:40:58;10.13;;;7.20;;
45408;SDS011;31162;51.076;3.784;2023-03-01T15:43:45;7.80;;;6.68;;
45408;SDS011;31162;51.076;3.784;2023-03-01T15:46:19;7.75;;;6.95;;
45408;SDS011;31162;51.076;3.784;2023-03-01T15:48:54;7.78;;;6.97;;
45408;SDS011;31162;51.076;3.784;2023-03-01T15:53:53;8.32;;;6.90;;
45408;SDS011;31162;51.076;3.784;2023-03-01T15:56:19;8.40;;;7.35;;
45408;SDS011;31162;51.076;3.784;2023-03-01T15:58:45;8.30;;;7.03;;
45408;SDS011;31162;51.076;3.784;2023-03-01T16:01:12;9.13;;;7.60;;
45408;SDS011;31162;51.076;3.784;2023-03-01T16:03:39;11.52;;;6.75;;
45408;SDS011;31162;51.076;3.784;2023-03-01T16:06:05;11.80;;;7.10;;
45408;SDS011;31162;51.076;3.784;2023-03-01T16:08:31;8.07;;;7.32;;
45408;SDS011;31162;51.076;3.784;2023-03-01T16:10:56;8.48;;;7.55;;
45408;SDS011;31162;51.076;3.784;2023-03-01T16:13:22;9.98;;;7.55;;
45408;SDS011;31162;51.076;3.784;2023-03-01T16:15:50;8.70;;;7.07;;
45408;SDS011;31162;51.076;3.784;2023-03-01T16:18:16;8.43;;;7.55;;
45408;SDS011;31162;51.076;3.784;2023-03-01T16:20:41;9.45;;;7.20;;
45408;SDS011;31162;51.076;3.784;2023-03-01T16:23:09;8.40;;;7.50;;
45408;SDS011;31162;51.076;3.784;2023-03-01T16:25:35;8.52;;;7.70;;
45408;SDS011;31162;51.076;3.784;2023-03-01T16:28:02;9.95;;;7.70;;
45408;SDS011;31162;51.076;3.784;2023-03-01T16:30:33;9.10;;;7.35;;
45408;SDS011;31162;51.076;3.784;2023-03-01T16:33:00;8.07;;;7.28;;
45408;SDS011;31162;51.076;3.784;2023-03-01T16:35:26;9.68;;;7.80;;
45408;SDS011;31162;51.076;3.784;2023-03-01T16:37:52;8.35;;;7.38;;
45408;SDS011;31162;51.076;3.784;2023-03-01T16:40:28;9.18;;;7.30;;
45408;SDS011;31162;51.076;3.784;2023-03-01T16:42:54;10.00;;;7.47;;